Reedsburg, Wisconsin
Current Conditions -  °F | °C
As of 6:55 PM on Saturday 22 Nov 2014 (Local Time) from KC35 Reporting Station
Haze Haze  
Wind Chill: 40°   Ceiling: 1800
Heat Index: 40°   Visibility: 4mi
Dew Point: 40°   Wind: 0mph
Humidity: 99%   Direction: NA
Pressure: 29.73"   Gusts: NA
Location:  43.53°N, 90°W
Report Text: KC35 230055Z AUTO 00000KT 4SM BR OVC018 05/04 A2973 RMK AO2 T00450043
Loading
Personal Weather Stations






























Interactive Weather Map New forecast layout! Learn more

10-Day Weather Forecast

Advertisements
Track Severe Weather on mobile